Lady Nur — 3FFE2 — position and weather

sailwx.info

Track history (hours):
 
Tides and Currents Weather Stations Pressure Air Temp Water Temp Dewpoint Dewpoint Depression Visibility Wind Speed Wind Dir Waves Ship Positions

Lady Nur

Last reported at 2014-Oct-22 18:12 UTC. Time now 2014-Oct-23 04:40 UTC.
Position N 38°13' E 015°19'.

Length 82 m; draft 3.3 m.

Type: Cargo ship. MMSI: 373237000.

Date/timePositionNaut miles runAvg speedWind from/ knotsBaromVisibWave heightAir tempDewpointWater temp
2014-Oct-22 18:12N 38°13' E 015°19'0 0.0
2014-Oct-22 17:30N 38°13' E 015°19'0 0.1
2014-Oct-22 16:29N 38°13' E 015°19'0 0.1
2014-Oct-22 15:28N 38°13' E 015°19'0 0.0
2014-Oct-22 14:28N 38°13' E 015°19'0 0.0
2014-Oct-22 13:28N 38°13' E 015°19'0 0.0
2014-Oct-22 12:28N 38°13' E 015°19'0 0.0
2014-Oct-22 11:28N 38°13' E 015°19'0 0.0
2014-Oct-22 10:28N 38°13' E 015°19'0 0.1
2014-Oct-22 09:28N 38°13' E 015°19'3 2.7
2014-Oct-22 08:29N 38°15' E 015°16'10 8.8
2014-Oct-22 07:25N 38°23' E 015°09'  
2014-Oct-17 18:10N 42°25' E 006°06'6 7.9
2014-Oct-17 17:25N 42°29' E 006°01'10 7.5
2014-Oct-17 16:08N 42°36' E 005°52'6 7.5
2014-Oct-17 15:20N 42°40' E 005°46'38 6.5
2014-Oct-17 09:32N 43°06' E 005°09'7 7.0
2014-Oct-17 08:31N 43°13' E 005°05'7 7.6
2014-Oct-17 07:33N 43°19' E 004°59'7 7.0
2014-Oct-17 06:33N 43°24' E 004°53'1 1.4
2014-Oct-17 05:31N 43°26' E 004°54'0 0.0
2014-Oct-17 04:31N 43°26' E 004°54'0 0.0
2014-Oct-17 03:31N 43°26' E 004°54'0 0.0
2014-Oct-17 02:31N 43°26' E 004°54'0 0.0
2014-Oct-17 01:31N 43°26' E 004°54'0 0.0
2014-Oct-17 00:25N 43°26' E 004°54'0 0.0
2014-Oct-16 23:31N 43°26' E 004°54'0 0.0
2014-Oct-16 22:31N 43°26' E 004°54'0 0.0
2014-Oct-16 21:30N 43°26' E 004°54'0 0.0
2014-Oct-16 20:30N 43°26' E 004°54'0 0.0
2014-Oct-16 19:30N 43°26' E 004°54'0 0.0
2014-Oct-16 18:30N 43°26' E 004°54'0 0.0
2014-Oct-16 17:30N 43°26' E 004°54'0 0.0
2014-Oct-16 16:30N 43°26' E 004°54'0 0.0
2014-Oct-16 15:33N 43°26' E 004°54'0 0.0
2014-Oct-16 14:34N 43°26' E 004°54'0 0.0
2014-Oct-16 13:34N 43°26' E 004°54'0 0.0
2014-Oct-16 12:34N 43°26' E 004°54'4 3.8
2014-Oct-16 11:34N 43°23' E 004°56'6 6.1
2014-Oct-16 10:34N 43°17' E 005°00'5 5.1
2014-Oct-16 09:33N 43°12' E 005°02'11 9.7
2014-Oct-16 08:22N 43°01' E 005°04'18 9.3
2014-Oct-16 06:25N 42°43' E 005°09'8 8.5
2014-Oct-16 05:31N 42°36' E 005°14'  
Track history (hours):
 
Tides and Currents Weather Stations Pressure Air Temp Water Temp Dewpoint Dewpoint Depression Visibility Wind Speed Wind Dir Waves Ship Positions

Lady Nur

Last reported at 2014-Oct-22 18:12 UTC. Time now 2014-Oct-23 04:40 UTC.
Position N 38°13' E 015°19'.

Length 82 m; draft 3.3 m.

Type: Cargo ship. MMSI: 373237000.

Date/timePositionNaut miles runAvg speedWind from/ knotsBaromVisibWave heightAir tempDewpointWater temp
2014-Oct-22 18:12N 38°13' E 015°19'0 0.0
2014-Oct-22 17:30N 38°13' E 015°19'0 0.1
2014-Oct-22 16:29N 38°13' E 015°19'0 0.1
2014-Oct-22 15:28N 38°13' E 015°19'0 0.0
2014-Oct-22 14:28N 38°13' E 015°19'0 0.0
2014-Oct-22 13:28N 38°13' E 015°19'0 0.0
2014-Oct-22 12:28N 38°13' E 015°19'0 0.0
2014-Oct-22 11:28N 38°13' E 015°19'0 0.0
2014-Oct-22 10:28N 38°13' E 015°19'0 0.1
2014-Oct-22 09:28N 38°13' E 015°19'3 2.7
2014-Oct-22 08:29N 38°15' E 015°16'10 8.8
2014-Oct-22 07:25N 38°23' E 015°09'  
2014-Oct-17 18:10N 42°25' E 006°06'6 7.9
2014-Oct-17 17:25N 42°29' E 006°01'10 7.5
2014-Oct-17 16:08N 42°36' E 005°52'6 7.5
2014-Oct-17 15:20N 42°40' E 005°46'38 6.5
2014-Oct-17 09:32N 43°06' E 005°09'7 7.0
2014-Oct-17 08:31N 43°13' E 005°05'7 7.6
2014-Oct-17 07:33N 43°19' E 004°59'7 7.0
2014-Oct-17 06:33N 43°24' E 004°53'1 1.4
2014-Oct-17 05:31N 43°26' E 004°54'0 0.0
2014-Oct-17 04:31N 43°26' E 004°54'0 0.0
2014-Oct-17 03:31N 43°26' E 004°54'0 0.0
2014-Oct-17 02:31N 43°26' E 004°54'0 0.0
2014-Oct-17 01:31N 43°26' E 004°54'0 0.0
2014-Oct-17 00:25N 43°26' E 004°54'0 0.0
2014-Oct-16 23:31N 43°26' E 004°54'0 0.0
2014-Oct-16 22:31N 43°26' E 004°54'0 0.0
2014-Oct-16 21:30N 43°26' E 004°54'0 0.0
2014-Oct-16 20:30N 43°26' E 004°54'0 0.0
2014-Oct-16 19:30N 43°26' E 004°54'0 0.0
2014-Oct-16 18:30N 43°26' E 004°54'0 0.0
2014-Oct-16 17:30N 43°26' E 004°54'0 0.0
2014-Oct-16 16:30N 43°26' E 004°54'0 0.0
2014-Oct-16 15:33N 43°26' E 004°54'0 0.0
2014-Oct-16 14:34N 43°26' E 004°54'0 0.0
2014-Oct-16 13:34N 43°26' E 004°54'0 0.0
2014-Oct-16 12:34N 43°26' E 004°54'4 3.8
2014-Oct-16 11:34N 43°23' E 004°56'6 6.1
2014-Oct-16 10:34N 43°17' E 005°00'5 5.1
2014-Oct-16 09:33N 43°12' E 005°02'11 9.7
2014-Oct-16 08:22N 43°01' E 005°04'18 9.3
2014-Oct-16 06:25N 42°43' E 005°09'8 8.5
2014-Oct-16 05:31N 42°36' E 005°14'  

Dump ship's entire track history